sensor_id;sensor_type;location;lat;lon;timestamp;temperature;humidity
54960;DHT22;40860;51.710;8.736;2023-05-18T00:01:44;6.50;94.10
54960;DHT22;40860;51.710;8.736;2023-05-18T00:05:48;6.40;94.10
54960;DHT22;40860;51.710;8.736;2023-05-18T00:09:51;6.40;94.40
54960;DHT22;40860;51.710;8.736;2023-05-18T00:13:54;6.30;94.30
54960;DHT22;40860;51.710;8.736;2023-05-18T00:17:58;6.30;94.50
54960;DHT22;40860;51.710;8.736;2023-05-18T00:22:01;6.30;94.40
54960;DHT22;40860;51.710;8.736;2023-05-18T00:26:07;6.20;94.90
54960;DHT22;40860;51.710;8.736;2023-05-18T00:30:11;6.10;95.00
54960;DHT22;40860;51.710;8.736;2023-05-18T00:34:16;6.00;95.30
54960;DHT22;40860;51.710;8.736;2023-05-18T00:38:18;5.90;95.20
54960;DHT22;40860;51.710;8.736;2023-05-18T00:42:21;5.90;95.40
54960;DHT22;40860;51.710;8.736;2023-05-18T00:46:25;5.80;95.80
54960;DHT22;40860;51.710;8.736;2023-05-18T00:50:30;5.70;96.00
54960;DHT22;40860;51.710;8.736;2023-05-18T00:54:33;5.70;96.10
54960;DHT22;40860;51.710;8.736;2023-05-18T00:58:37;5.60;96.20
54960;DHT22;40860;51.710;8.736;2023-05-18T01:02:42;5.60;96.20
54960;DHT22;40860;51.710;8.736;2023-05-18T01:06:59;5.50;96.50
54960;DHT22;40860;51.710;8.736;2023-05-18T01:11:25;5.40;96.50
54960;DHT22;40860;51.710;8.736;2023-05-18T01:15:42;5.40;96.40
54960;DHT22;40860;51.710;8.736;2023-05-18T01:24:34;5.40;96.60
54960;DHT22;40860;51.710;8.736;2023-05-18T01:28:40;5.30;96.70
54960;DHT22;40860;51.710;8.736;2023-05-18T01:32:45;5.30;96.60
54960;DHT22;40860;51.710;8.736;2023-05-18T01:36:48;5.30;96.60
54960;DHT22;40860;51.710;8.736;2023-05-18T01:40:57;5.30;96.80
54960;DHT22;40860;51.710;8.736;2023-05-18T01:45:06;5.30;96.70
54960;DHT22;40860;51.710;8.736;2023-05-18T01:49:15;5.30;96.50
54960;DHT22;40860;51.710;8.736;2023-05-18T01:53:23;5.20;96.90
54960;DHT22;40860;51.710;8.736;2023-05-18T01:57:28;5.20;96.90
54960;DHT22;40860;51.710;8.736;2023-05-18T02:01:34;5.10;97.10
54960;DHT22;40860;51.710;8.736;2023-05-18T02:05:37;5.00;97.00
54960;DHT22;40860;51.710;8.736;2023-05-18T02:09:40;5.10;96.70
54960;DHT22;40860;51.710;8.736;2023-05-18T02:13:43;5.10;96.40
54960;DHT22;40860;51.710;8.736;2023-05-18T02:17:47;5.00;96.90
54960;DHT22;40860;51.710;8.736;2023-05-18T02:21:50;4.80;97.30
54960;DHT22;40860;51.710;8.736;2023-05-18T02:25:54;4.80;97.50
54960;DHT22;40860;51.710;8.736;2023-05-18T02:29:58;4.80;97.60
54960;DHT22;40860;51.710;8.736;2023-05-18T02:34:03;4.70;97.60
54960;DHT22;40860;51.710;8.736;2023-05-18T02:38:06;4.70;97.50
54960;DHT22;40860;51.710;8.736;2023-05-18T02:42:08;4.70;97.70
54960;DHT22;40860;51.710;8.736;2023-05-18T02:46:11;4.60;98.00
54960;DHT22;40860;51.710;8.736;2023-05-18T02:50:18;4.60;98.30
54960;DHT22;40860;51.710;8.736;2023-05-18T02:54:22;4.50;98.30
54960;DHT22;40860;51.710;8.736;2023-05-18T02:58:26;4.50;98.20
54960;DHT22;40860;51.710;8.736;2023-05-18T03:02:39;4.50;98.10
54960;DHT22;40860;51.710;8.736;2023-05-18T03:06:47;4.40;98.30
54960;DHT22;40860;51.710;8.736;2023-05-18T03:10:59;4.40;98.20
54960;DHT22;40860;51.710;8.736;2023-05-18T03:15:07;4.40;98.30
54960;DHT22;40860;51.710;8.736;2023-05-18T03:19:12;4.40;98.20
54960;DHT22;40860;51.710;8.736;2023-05-18T03:23:19;4.50;98.30
54960;DHT22;40860;51.710;8.736;2023-05-18T03:27:24;4.60;98.20
54960;DHT22;40860;51.710;8.736;2023-05-18T03:31:30;4.70;97.80
54960;DHT22;40860;51.710;8.736;2023-05-18T03:35:35;4.70;97.70
54960;DHT22;40860;51.710;8.736;2023-05-18T03:39:39;4.70;97.80
54960;DHT22;40860;51.710;8.736;2023-05-18T03:43:44;4.70;97.70
54960;DHT22;40860;51.710;8.736;2023-05-18T03:47:49;4.60;97.60
54960;DHT22;40860;51.710;8.736;2023-05-18T03:51:53;4.60;97.60
54960;DHT22;40860;51.710;8.736;2023-05-18T03:55:58;4.70;97.70
54960;DHT22;40860;51.710;8.736;2023-05-18T04:00:05;4.60;97.80
54960;DHT22;40860;51.710;8.736;2023-05-18T04:04:18;4.60;97.80
54960;DHT22;40860;51.710;8.736;2023-05-18T04:08:24;4.70;98.00
54960;DHT22;40860;51.710;8.736;2023-05-18T04:12:28;4.50;98.20
54960;DHT22;40860;51.710;8.736;2023-05-18T04:16:31;4.50;98.80
54960;DHT22;40860;51.710;8.736;2023-05-18T04:20:35;4.40;99.30
54960;DHT22;40860;51.710;8.736;2023-05-18T04:24:39;4.40;99.40
54960;DHT22;40860;51.710;8.736;2023-05-18T04:28:44;4.50;99.50
54960;DHT22;40860;51.710;8.736;2023-05-18T04:32:48;4.50;99.30
54960;DHT22;40860;51.710;8.736;2023-05-18T04:36:51;4.60;98.90
54960;DHT22;40860;51.710;8.736;2023-05-18T04:40:56;4.80;98.90
54960;DHT22;40860;51.710;8.736;2023-05-18T04:45:02;4.90;98.70
54960;DHT22;40860;51.710;8.736;2023-05-18T04:49:07;5.00;98.30
54960;DHT22;40860;51.710;8.736;2023-05-18T04:53:13;5.20;98.30
54960;DHT22;40860;51.710;8.736;2023-05-18T04:57:19;5.30;98.10
54960;DHT22;40860;51.710;8.736;2023-05-18T05:01:27;5.50;98.00
54960;DHT22;40860;51.710;8.736;2023-05-18T05:05:33;5.60;97.70
54960;DHT22;40860;51.710;8.736;2023-05-18T05:09:36;5.70;97.40
54960;DHT22;40860;51.710;8.736;2023-05-18T05:13:41;5.90;97.10
54960;DHT22;40860;51.710;8.736;2023-05-18T05:17:46;6.00;96.90
54960;DHT22;40860;51.710;8.736;2023-05-18T05:21:51;6.20;96.70
54960;DHT22;40860;51.710;8.736;2023-05-18T05:25:54;6.40;96.40
54960;DHT22;40860;51.710;8.736;2023-05-18T05:29:57;7.70;97.40
54960;DHT22;40860;51.710;8.736;2023-05-18T05:34:02;9.50;92.30
54960;DHT22;40860;51.710;8.736;2023-05-18T05:38:06;11.20;90.40
54960;DHT22;40860;51.710;8.736;2023-05-18T05:42:15;11.00;84.80
54960;DHT22;40860;51.710;8.736;2023-05-18T05:46:19;9.90;85.40
54960;DHT22;40860;51.710;8.736;2023-05-18T05:50:23;9.30;87.80
54960;DHT22;40860;51.710;8.736;2023-05-18T05:54:33;9.30;89.00
54960;DHT22;40860;51.710;8.736;2023-05-18T05:58:44;9.30;90.00
54960;DHT22;40860;51.710;8.736;2023-05-18T06:02:51;9.40;89.60
54960;DHT22;40860;51.710;8.736;2023-05-18T06:07:03;9.50;89.20
54960;DHT22;40860;51.710;8.736;2023-05-18T06:11:07;9.70;88.00
54960;DHT22;40860;51.710;8.736;2023-05-18T06:15:17;9.70;87.70
54960;DHT22;40860;51.710;8.736;2023-05-18T06:19:24;9.70;87.30
54960;DHT22;40860;51.710;8.736;2023-05-18T06:23:28;9.70;87.70
54960;DHT22;40860;51.710;8.736;2023-05-18T06:27:44;9.50;88.00
54960;DHT22;40860;51.710;8.736;2023-05-18T06:32:12;10.20;88.30
54960;DHT22;40860;51.710;8.736;2023-05-18T06:36:17;11.10;84.00
54960;DHT22;40860;51.710;8.736;2023-05-18T06:40:21;11.00;81.30
54960;DHT22;40860;51.710;8.736;2023-05-18T06:44:25;11.70;81.50
54960;DHT22;40860;51.710;8.736;2023-05-18T06:48:45;12.60;76.90
54960;DHT22;40860;51.710;8.736;2023-05-18T06:52:48;12.60;74.00
54960;DHT22;40860;51.710;8.736;2023-05-18T06:56:53;12.30;75.60
54960;DHT22;40860;51.710;8.736;2023-05-18T07:00:56;12.10;73.80
54960;DHT22;40860;51.710;8.736;2023-05-18T07:04:59;11.80;75.20
54960;DHT22;40860;51.710;8.736;2023-05-18T07:09:06;11.40;75.30
54960;DHT22;40860;51.710;8.736;2023-05-18T07:13:11;11.40;76.90
54960;DHT22;40860;51.710;8.736;2023-05-18T07:17:14;12.30;75.50
54960;DHT22;40860;51.710;8.736;2023-05-18T07:21:17;14.20;69.90
54960;DHT22;40860;51.710;8.736;2023-05-18T07:25:20;15.70;63.90
54960;DHT22;40860;51.710;8.736;2023-05-18T07:29:24;16.50;59.60
54960;DHT22;40860;51.710;8.736;2023-05-18T07:33:27;18.20;56.10
54960;DHT22;40860;51.710;8.736;2023-05-18T07:37:29;19.20;52.20
54960;DHT22;40860;51.710;8.736;2023-05-18T07:41:32;19.40;50.30
54960;DHT22;40860;51.710;8.736;2023-05-18T07:45:36;19.40;48.40
54960;DHT22;40860;51.710;8.736;2023-05-18T07:49:39;19.10;49.20
54960;DHT22;40860;51.710;8.736;2023-05-18T07:53:43;19.30;50.30
54960;DHT22;40860;51.710;8.736;2023-05-18T07:57:47;19.60;49.20
54960;DHT22;40860;51.710;8.736;2023-05-18T08:01:51;18.10;49.10
54960;DHT22;40860;51.710;8.736;2023-05-18T08:05:54;17.50;51.20
54960;DHT22;40860;51.710;8.736;2023-05-18T08:09:57;17.30;51.10
54960;DHT22;40860;51.710;8.736;2023-05-18T08:14:00;17.00;51.40
54960;DHT22;40860;51.710;8.736;2023-05-18T08:18:04;16.40;52.50
54960;DHT22;40860;51.710;8.736;2023-05-18T08:22:07;16.40;53.00
54960;DHT22;40860;51.710;8.736;2023-05-18T08:26:10;17.10;52.90
54960;DHT22;40860;51.710;8.736;2023-05-18T08:30:15;17.20;51.60
54960;DHT22;40860;51.710;8.736;2023-05-18T08:34:23;16.50;53.20
54960;DHT22;40860;51.710;8.736;2023-05-18T08:38:26;17.20;53.80
54960;DHT22;40860;51.710;8.736;2023-05-18T08:42:32;17.20;51.70
54960;DHT22;40860;51.710;8.736;2023-05-18T08:46:50;16.80;52.70
54960;DHT22;40860;51.710;8.736;2023-05-18T08:50:56;16.40;54.10
54960;DHT22;40860;51.710;8.736;2023-05-18T08:54:59;16.10;53.60
54960;DHT22;40860;51.710;8.736;2023-05-18T08:59:06;16.30;54.60
54960;DHT22;40860;51.710;8.736;2023-05-18T09:03:10;16.90;53.50
54960;DHT22;40860;51.710;8.736;2023-05-18T09:07:17;16.90;52.10
54960;DHT22;40860;51.710;8.736;2023-05-18T09:11:21;16.80;52.60
54960;DHT22;40860;51.710;8.736;2023-05-18T09:15:26;17.20;53.50
54960;DHT22;40860;51.710;8.736;2023-05-18T09:19:30;17.40;50.30
54960;DHT22;40860;51.710;8.736;2023-05-18T09:23:36;17.10;51.00
54960;DHT22;40860;51.710;8.736;2023-05-18T09:27:39;16.90;53.20
54960;DHT22;40860;51.710;8.736;2023-05-18T09:31:43;17.00;54.40
54960;DHT22;40860;51.710;8.736;2023-05-18T09:35:46;17.00;52.90
54960;DHT22;40860;51.710;8.736;2023-05-18T09:40:01;16.50;51.80
54960;DHT22;40860;51.710;8.736;2023-05-18T09:44:05;16.60;54.10
54960;DHT22;40860;51.710;8.736;2023-05-18T09:48:10;16.70;53.90
54960;DHT22;40860;51.710;8.736;2023-05-18T09:52:15;16.90;53.30
54960;DHT22;40860;51.710;8.736;2023-05-18T09:56:19;16.60;53.90
54960;DHT22;40860;51.710;8.736;2023-05-18T10:00:23;16.40;54.20
54960;DHT22;40860;51.710;8.736;2023-05-18T10:04:38;17.00;54.40
54960;DHT22;40860;51.710;8.736;2023-05-18T10:08:41;18.00;53.90
54960;DHT22;40860;51.710;8.736;2023-05-18T10:12:49;17.90;52.40
54960;DHT22;40860;51.710;8.736;2023-05-18T10:16:56;17.60;52.00
54960;DHT22;40860;51.710;8.736;2023-05-18T10:21:16;17.10;52.40
54960;DHT22;40860;51.710;8.736;2023-05-18T10:25:21;16.60;52.20
54960;DHT22;40860;51.710;8.736;2023-05-18T10:29:26;16.60;52.80
54960;DHT22;40860;51.710;8.736;2023-05-18T10:33:30;16.50;53.10
54960;DHT22;40860;51.710;8.736;2023-05-18T10:37:34;16.80;53.90
54960;DHT22;40860;51.710;8.736;2023-05-18T10:41:38;16.70;52.40
54960;DHT22;40860;51.710;8.736;2023-05-18T10:45:46;16.10;53.70
54960;DHT22;40860;51.710;8.736;2023-05-18T10:49:49;15.90;53.80
54960;DHT22;40860;51.710;8.736;2023-05-18T10:53:59;16.10;55.00
54960;DHT22;40860;51.710;8.736;2023-05-18T10:58:06;16.30;54.90
54960;DHT22;40860;51.710;8.736;2023-05-18T11:02:13;16.00;53.60
54960;DHT22;40860;51.710;8.736;2023-05-18T11:06:22;15.80;54.10
54960;DHT22;40860;51.710;8.736;2023-05-18T11:10:32;16.10;53.40
54960;DHT22;40860;51.710;8.736;2023-05-18T11:14:35;16.00;53.60
54960;DHT22;40860;51.710;8.736;2023-05-18T11:18:50;16.30;54.50
54960;DHT22;40860;51.710;8.736;2023-05-18T11:23:01;16.10;54.40
54960;DHT22;40860;51.710;8.736;2023-05-18T11:27:12;15.90;54.50
54960;DHT22;40860;51.710;8.736;2023-05-18T11:31:17;16.10;54.50
54960;DHT22;40860;51.710;8.736;2023-05-18T11:35:23;15.90;53.80
54960;DHT22;40860;51.710;8.736;2023-05-18T11:39:25;15.70;53.40
54960;DHT22;40860;51.710;8.736;2023-05-18T11:43:28;15.90;54.30
54960;DHT22;40860;51.710;8.736;2023-05-18T11:47:32;16.20;55.40
54960;DHT22;40860;51.710;8.736;2023-05-18T11:51:56;16.30;54.40
54960;DHT22;40860;51.710;8.736;2023-05-18T11:56:02;16.20;53.70
54960;DHT22;40860;51.710;8.736;2023-05-18T12:00:07;16.30;51.70
54960;DHT22;40860;51.710;8.736;2023-05-18T12:04:14;16.50;53.30
54960;DHT22;40860;51.710;8.736;2023-05-18T12:08:19;16.70;51.30
54960;DHT22;40860;51.710;8.736;2023-05-18T12:12:22;17.00;51.00
54960;DHT22;40860;51.710;8.736;2023-05-18T12:16:25;17.20;52.30
54960;DHT22;40860;51.710;8.736;2023-05-18T12:20:28;17.80;51.00
54960;DHT22;40860;51.710;8.736;2023-05-18T12:24:33;18.00;50.10
54960;DHT22;40860;51.710;8.736;2023-05-18T12:28:36;18.40;50.90
54960;DHT22;40860;51.710;8.736;2023-05-18T12:32:44;18.00;50.00
54960;DHT22;40860;51.710;8.736;2023-05-18T12:36:51;17.60;51.40
54960;DHT22;40860;51.710;8.736;2023-05-18T12:40:56;17.40;50.00
54960;DHT22;40860;51.710;8.736;2023-05-18T12:44:59;16.90;50.60
54960;DHT22;40860;51.710;8.736;2023-05-18T12:49:04;16.70;52.20
54960;DHT22;40860;51.710;8.736;2023-05-18T12:53:07;17.10;52.00
54960;DHT22;40860;51.710;8.736;2023-05-18T12:57:11;17.40;51.00
54960;DHT22;40860;51.710;8.736;2023-05-18T13:01:16;17.80;52.90
54960;DHT22;40860;51.710;8.736;2023-05-18T13:05:23;18.00;50.20
54960;DHT22;40860;51.710;8.736;2023-05-18T13:09:26;18.00;49.80
54960;DHT22;40860;51.710;8.736;2023-05-18T13:13:30;17.60;49.90
54960;DHT22;40860;51.710;8.736;2023-05-18T13:17:33;17.10;50.20
54960;DHT22;40860;51.710;8.736;2023-05-18T13:21:36;17.50;51.40
54960;DHT22;40860;51.710;8.736;2023-05-18T13:25:40;17.70;50.10
54960;DHT22;40860;51.710;8.736;2023-05-18T13:29:44;17.90;49.00
54960;DHT22;40860;51.710;8.736;2023-05-18T13:33:47;18.00;49.50
54960;DHT22;40860;51.710;8.736;2023-05-18T13:37:51;17.80;49.80
54960;DHT22;40860;51.710;8.736;2023-05-18T13:41:54;18.00;49.20
54960;DHT22;40860;51.710;8.736;2023-05-18T13:45:58;18.20;49.10
54960;DHT22;40860;51.710;8.736;2023-05-18T13:50:24;18.70;48.10
54960;DHT22;40860;51.710;8.736;2023-05-18T13:55:05;19.30;46.90
54960;DHT22;40860;51.710;8.736;2023-05-18T13:59:17;20.10;47.50
54960;DHT22;40860;51.710;8.736;2023-05-18T14:03:29;20.20;45.60
54960;DHT22;40860;51.710;8.736;2023-05-18T14:07:40;19.70;44.90
54960;DHT22;40860;51.710;8.736;2023-05-18T14:11:43;19.50;46.00
54960;DHT22;40860;51.710;8.736;2023-05-18T14:15:52;19.70;46.50
54960;DHT22;40860;51.710;8.736;2023-05-18T14:20:00;19.70;46.90
54960;DHT22;40860;51.710;8.736;2023-05-18T14:24:07;20.00;45.30
54960;DHT22;40860;51.710;8.736;2023-05-18T14:28:13;19.70;45.30
54960;DHT22;40860;51.710;8.736;2023-05-18T14:32:19;20.10;45.60
54960;DHT22;40860;51.710;8.736;2023-05-18T14:36:23;20.00;44.20
54960;DHT22;40860;51.710;8.736;2023-05-18T14:40:30;20.40;45.00
54960;DHT22;40860;51.710;8.736;2023-05-18T14:44:34;20.40;45.60
54960;DHT22;40860;51.710;8.736;2023-05-18T14:48:55;20.00;45.10
54960;DHT22;40860;51.710;8.736;2023-05-18T14:58:14;20.40;44.60
54960;DHT22;40860;51.710;8.736;2023-05-18T15:02:28;20.60;45.00
54960;DHT22;40860;51.710;8.736;2023-05-18T15:06:36;20.70;44.80
54960;DHT22;40860;51.710;8.736;2023-05-18T15:11:02;20.60;44.20
54960;DHT22;40860;51.710;8.736;2023-05-18T15:15:16;20.80;48.10
54960;DHT22;40860;51.710;8.736;2023-05-18T15:19:30;20.80;46.60
54960;DHT22;40860;51.710;8.736;2023-05-18T15:23:48;20.90;43.30
54960;DHT22;40860;51.710;8.736;2023-05-18T15:28:08;20.50;43.60
54960;DHT22;40860;51.710;8.736;2023-05-18T15:32:54;20.50;43.40
54960;DHT22;40860;51.710;8.736;2023-05-18T15:37:28;20.90;43.50
54960;DHT22;40860;51.710;8.736;2023-05-18T15:42:28;20.40;43.40
54960;DHT22;40860;51.710;8.736;2023-05-18T15:46:35;20.30;44.50
54960;DHT22;40860;51.710;8.736;2023-05-18T15:50:42;20.10;44.50
54960;DHT22;40860;51.710;8.736;2023-05-18T15:54:52;19.50;45.40
54960;DHT22;40860;51.710;8.736;2023-05-18T15:58:55;19.50;45.90
54960;DHT22;40860;51.710;8.736;2023-05-18T16:02:58;19.60;45.60
54960;DHT22;40860;51.710;8.736;2023-05-18T16:07:04;19.80;45.50
54960;DHT22;40860;51.710;8.736;2023-05-18T16:11:10;19.90;44.80
54960;DHT22;40860;51.710;8.736;2023-05-18T16:15:16;20.20;44.60
54960;DHT22;40860;51.710;8.736;2023-05-18T16:19:21;20.30;44.60
54960;DHT22;40860;51.710;8.736;2023-05-18T16:23:28;19.80;45.00
54960;DHT22;40860;51.710;8.736;2023-05-18T16:27:39;19.40;45.40
54960;DHT22;40860;51.710;8.736;2023-05-18T16:31:48;19.40;45.60
54960;DHT22;40860;51.710;8.736;2023-05-18T16:35:58;19.40;45.50
54960;DHT22;40860;51.710;8.736;2023-05-18T16:40:05;19.20;45.60
54960;DHT22;40860;51.710;8.736;2023-05-18T16:44:09;19.10;45.70
54960;DHT22;40860;51.710;8.736;2023-05-18T16:48:12;18.90;45.70
54960;DHT22;40860;51.710;8.736;2023-05-18T16:52:19;18.60;46.20
54960;DHT22;40860;51.710;8.736;2023-05-18T16:56:34;18.40;47.10
54960;DHT22;40860;51.710;8.736;2023-05-18T17:00:49;18.20;47.30
54960;DHT22;40860;51.710;8.736;2023-05-18T17:04:56;18.00;48.60
54960;DHT22;40860;51.710;8.736;2023-05-18T17:09:02;17.60;48.90
54960;DHT22;40860;51.710;8.736;2023-05-18T17:13:11;17.40;49.30
54960;DHT22;40860;51.710;8.736;2023-05-18T17:17:19;17.20;49.60
54960;DHT22;40860;51.710;8.736;2023-05-18T17:21:35;17.00;50.10
54960;DHT22;40860;51.710;8.736;2023-05-18T17:25:56;17.00;50.40
54960;DHT22;40860;51.710;8.736;2023-05-18T17:30:15;16.80;50.90
54960;DHT22;40860;51.710;8.736;2023-05-18T17:34:19;16.70;51.30
54960;DHT22;40860;51.710;8.736;2023-05-18T17:38:22;16.60;51.90
54960;DHT22;40860;51.710;8.736;2023-05-18T17:42:26;16.40;52.10
54960;DHT22;40860;51.710;8.736;2023-05-18T17:46:38;16.30;52.20
54960;DHT22;40860;51.710;8.736;2023-05-18T17:50:47;16.20;52.70
54960;DHT22;40860;51.710;8.736;2023-05-18T17:54:50;16.10;53.30
54960;DHT22;40860;51.710;8.736;2023-05-18T17:58:54;16.00;53.50
54960;DHT22;40860;51.710;8.736;2023-05-18T18:02:58;15.80;53.70
54960;DHT22;40860;51.710;8.736;2023-05-18T18:07:02;15.70;54.40
54960;DHT22;40860;51.710;8.736;2023-05-18T18:11:05;15.60;54.70
54960;DHT22;40860;51.710;8.736;2023-05-18T18:15:13;15.50;54.80
54960;DHT22;40860;51.710;8.736;2023-05-18T18:19:19;15.40;55.20
54960;DHT22;40860;51.710;8.736;2023-05-18T18:23:23;15.20;55.10
54960;DHT22;40860;51.710;8.736;2023-05-18T18:27:26;15.20;55.50
54960;DHT22;40860;51.710;8.736;2023-05-18T18:31:35;15.10;56.10
54960;DHT22;40860;51.710;8.736;2023-05-18T18:35:47;15.00;56.60
54960;DHT22;40860;51.710;8.736;2023-05-18T18:39:59;14.90;56.50
54960;DHT22;40860;51.710;8.736;2023-05-18T18:44:10;14.70;56.80
54960;DHT22;40860;51.710;8.736;2023-05-18T18:48:16;14.60;57.50
54960;DHT22;40860;51.710;8.736;2023-05-18T18:52:33;14.60;57.80
54960;DHT22;40860;51.710;8.736;2023-05-18T18:56:45;14.50;57.90
54960;DHT22;40860;51.710;8.736;2023-05-18T19:00:48;14.40;58.30
54960;DHT22;40860;51.710;8.736;2023-05-18T19:04:52;14.40;58.60
54960;DHT22;40860;51.710;8.736;2023-05-18T19:09:04;14.30;58.80
54960;DHT22;40860;51.710;8.736;2023-05-18T19:13:12;14.20;59.20
54960;DHT22;40860;51.710;8.736;2023-05-18T19:17:18;14.10;59.90
54960;DHT22;40860;51.710;8.736;2023-05-18T19:21:25;14.00;60.40
54960;DHT22;40860;51.710;8.736;2023-05-18T19:29:47;13.80;61.10
54960;DHT22;40860;51.710;8.736;2023-05-18T19:33:54;13.70;61.60
54960;DHT22;40860;51.710;8.736;2023-05-18T19:38:01;13.60;62.00
54960;DHT22;40860;51.710;8.736;2023-05-18T19:42:06;13.50;63.50
54960;DHT22;40860;51.710;8.736;2023-05-18T19:46:10;13.40;63.40
54960;DHT22;40860;51.710;8.736;2023-05-18T19:50:16;13.30;63.60
54960;DHT22;40860;51.710;8.736;2023-05-18T19:54:23;13.20;63.90
54960;DHT22;40860;51.710;8.736;2023-05-18T19:58:31;13.20;64.50
54960;DHT22;40860;51.710;8.736;2023-05-18T20:02:37;13.10;65.10
54960;DHT22;40860;51.710;8.736;2023-05-18T20:06:41;13.00;65.20
54960;DHT22;40860;51.710;8.736;2023-05-18T20:10:45;12.90;65.50
54960;DHT22;40860;51.710;8.736;2023-05-18T20:14:51;12.80;65.90
54960;DHT22;40860;51.710;8.736;2023-05-18T20:18:57;12.80;66.00
54960;DHT22;40860;51.710;8.736;2023-05-18T20:23:04;12.70;66.70
54960;DHT22;40860;51.710;8.736;2023-05-18T20:27:09;12.60;67.10
54960;DHT22;40860;51.710;8.736;2023-05-18T20:31:14;12.60;67.30
54960;DHT22;40860;51.710;8.736;2023-05-18T20:35:18;12.50;68.00
54960;DHT22;40860;51.710;8.736;2023-05-18T20:39:22;12.40;68.60
54960;DHT22;40860;51.710;8.736;2023-05-18T20:43:30;12.40;68.80
54960;DHT22;40860;51.710;8.736;2023-05-18T20:47:41;12.30;69.30
54960;DHT22;40860;51.710;8.736;2023-05-18T20:51:50;12.20;70.60
54960;DHT22;40860;51.710;8.736;2023-05-18T20:56:00;12.00;71.30
54960;DHT22;40860;51.710;8.736;2023-05-18T21:00:10;11.90;72.50
54960;DHT22;40860;51.710;8.736;2023-05-18T21:04:17;11.80;72.90
54960;DHT22;40860;51.710;8.736;2023-05-18T21:08:21;11.70;74.40
54960;DHT22;40860;51.710;8.736;2023-05-18T21:12:24;11.60;74.90
54960;DHT22;40860;51.710;8.736;2023-05-18T21:16:35;11.50;76.10
54960;DHT22;40860;51.710;8.736;2023-05-18T21:20:46;11.40;77.10
54960;DHT22;40860;51.710;8.736;2023-05-18T21:24:51;11.30;77.50
54960;DHT22;40860;51.710;8.736;2023-05-18T21:29:03;11.30;78.30
54960;DHT22;40860;51.710;8.736;2023-05-18T21:33:15;11.10;78.90
54960;DHT22;40860;51.710;8.736;2023-05-18T21:37:21;11.10;79.30
54960;DHT22;40860;51.710;8.736;2023-05-18T21:41:25;11.00;79.80
54960;DHT22;40860;51.710;8.736;2023-05-18T21:45:29;10.90;80.00
54960;DHT22;40860;51.710;8.736;2023-05-18T21:49:32;10.90;79.80
54960;DHT22;40860;51.710;8.736;2023-05-18T21:53:37;10.90;79.90
54960;DHT22;40860;51.710;8.736;2023-05-18T21:57:40;10.80;80.00
54960;DHT22;40860;51.710;8.736;2023-05-18T22:01:43;10.80;80.40
54960;DHT22;40860;51.710;8.736;2023-05-18T22:05:47;10.70;80.70
54960;DHT22;40860;51.710;8.736;2023-05-18T22:09:51;10.70;80.50
54960;DHT22;40860;51.710;8.736;2023-05-18T22:13:54;10.70;80.60
54960;DHT22;40860;51.710;8.736;2023-05-18T22:17:57;10.70;81.00
54960;DHT22;40860;51.710;8.736;2023-05-18T22:22:02;10.60;81.10
54960;DHT22;40860;51.710;8.736;2023-05-18T22:26:08;10.60;81.10
54960;DHT22;40860;51.710;8.736;2023-05-18T22:30:12;10.60;81.60
54960;DHT22;40860;51.710;8.736;2023-05-18T22:34:15;10.50;82.60
54960;DHT22;40860;51.710;8.736;2023-05-18T22:38:18;10.50;82.70
54960;DHT22;40860;51.710;8.736;2023-05-18T22:42:22;10.40;83.90
54960;DHT22;40860;51.710;8.736;2023-05-18T22:46:25;10.30;84.40
54960;DHT22;40860;51.710;8.736;2023-05-18T22:50:28;10.20;85.00
54960;DHT22;40860;51.710;8.736;2023-05-18T22:54:32;10.10;85.30
54960;DHT22;40860;51.710;8.736;2023-05-18T22:58:36;10.10;85.50
54960;DHT22;40860;51.710;8.736;2023-05-18T23:02:40;10.10;85.40
54960;DHT22;40860;51.710;8.736;2023-05-18T23:06:43;10.10;85.00
54960;DHT22;40860;51.710;8.736;2023-05-18T23:10:49;10.10;85.40
54960;DHT22;40860;51.710;8.736;2023-05-18T23:14:53;10.10;85.00
54960;DHT22;40860;51.710;8.736;2023-05-18T23:18:56;10.10;85.00
54960;DHT22;40860;51.710;8.736;2023-05-18T23:23:02;10.00;85.00
54960;DHT22;40860;51.710;8.736;2023-05-18T23:27:05;10.00;84.90
54960;DHT22;40860;51.710;8.736;2023-05-18T23:31:09;10.00;84.70
54960;DHT22;40860;51.710;8.736;2023-05-18T23:35:13;10.00;84.70
54960;DHT22;40860;51.710;8.736;2023-05-18T23:39:17;10.00;84.80
54960;DHT22;40860;51.710;8.736;2023-05-18T23:43:20;10.00;84.70
54960;DHT22;40860;51.710;8.736;2023-05-18T23:47:25;10.00;84.90
54960;DHT22;40860;51.710;8.736;2023-05-18T23:51:29;10.00;85.00
54960;DHT22;40860;51.710;8.736;2023-05-18T23:55:38;9.90;85.20
54960;DHT22;40860;51.710;8.736;2023-05-18T23:59:42;9.80;85.60
